createdAt,value
2019-02-16T00:27:11.587Z,6.00
2019-02-16T00:29:52.622Z,6.03
2019-02-16T00:32:33.815Z,6.62
2019-02-16T00:35:12.960Z,6.78
2019-02-16T00:38:00.791Z,6.33
2019-02-16T00:40:48.646Z,6.60
2019-02-16T00:43:36.702Z,7.28
2019-02-16T00:46:24.799Z,9.35
2019-02-16T00:49:12.891Z,7.12
2019-02-16T00:52:00.975Z,7.03
2019-02-16T00:54:48.828Z,6.92
2019-02-16T00:57:36.898Z,6.87
2019-02-16T01:00:24.767Z,6.60
2019-02-16T01:03:12.836Z,5.95
2019-02-16T01:06:00.923Z,6.10
2019-02-16T01:08:48.995Z,6.78
2019-02-16T01:11:36.845Z,5.85
2019-02-16T01:14:24.698Z,7.22
2019-02-16T01:20:07.163Z,6.47
2019-02-16T01:22:47.742Z,7.25
2019-02-16T01:25:28.635Z,5.65
2019-02-16T01:28:08.929Z,5.70
2019-02-16T01:30:49.463Z,5.90
2019-02-16T01:33:30.046Z,6.15
2019-02-16T01:36:10.990Z,5.45
2019-02-16T01:38:51.810Z,5.87
2019-02-16T01:41:32.280Z,6.40
2019-02-16T01:44:13.603Z,6.20
2019-02-16T01:46:52.558Z,6.20
2019-02-16T01:49:40.399Z,5.58
2019-02-16T01:52:28.247Z,4.70
2019-02-16T01:55:16.081Z,5.62
2019-02-16T01:58:04.148Z,4.10
2019-02-16T02:00:51.987Z,4.47
2019-02-16T02:03:39.815Z,5.72
2019-02-16T02:06:08.383Z,5.60
2019-02-16T02:08:36.994Z,6.00
2019-02-16T02:11:05.963Z,6.12
2019-02-16T02:13:34.575Z,6.53
2019-02-16T02:16:03.159Z,6.60
2019-02-16T02:18:32.002Z,7.22
2019-02-16T02:21:00.547Z,6.80
2019-02-16T02:23:29.127Z,6.55
2019-02-16T02:25:58.373Z,7.05
2019-02-16T02:28:26.902Z,6.75
2019-02-16T02:30:55.494Z,6.85
2019-02-16T02:33:24.070Z,7.08
2019-02-16T02:35:52.656Z,6.62
2019-02-16T02:38:21.252Z,6.70
2019-02-16T02:40:50.148Z,6.08
2019-02-16T02:43:18.723Z,6.25
2019-02-16T02:45:47.299Z,6.42
2019-02-16T02:48:16.210Z,6.83
2019-02-16T02:50:44.783Z,7.20
2019-02-16T02:53:13.371Z,6.67
2019-02-16T02:55:41.945Z,6.10
2019-02-16T02:58:10.543Z,6.67
2019-02-16T03:00:39.350Z,6.72
2019-02-16T03:03:07.913Z,7.35
2019-02-16T03:05:36.487Z,6.85
2019-02-16T03:08:05.076Z,8.28
2019-02-16T03:10:33.656Z,6.80
2019-02-16T03:13:02.276Z,6.55
2019-02-16T03:15:30.786Z,7.47
2019-02-16T03:17:59.411Z,6.67
2019-02-16T03:20:28.002Z,6.47
2019-02-16T03:23:18.967Z,6.40
2019-02-16T03:25:51.436Z,7.08
2019-02-16T03:28:50.443Z,7.12
2019-02-16T03:31:39.804Z,7.30
2019-02-16T03:34:14.032Z,7.47
2019-02-16T03:37:13.843Z,7.42
2019-02-16T03:39:45.195Z,6.33
2019-02-16T03:42:13.809Z,7.25
2019-02-16T03:44:42.453Z,7.60
2019-02-16T03:47:11.420Z,6.85
2019-02-16T03:49:40.287Z,7.03
2019-02-16T03:52:13.867Z,7.72
2019-02-16T03:54:39.840Z,8.70
2019-02-16T03:57:08.620Z,10.40
2019-02-16T03:59:37.897Z,9.80
2019-02-16T04:02:06.470Z,9.50
2019-02-16T04:04:35.264Z,8.95
2019-02-16T04:07:03.891Z,10.82
2019-02-16T04:09:32.490Z,8.08
2019-02-16T04:12:01.166Z,9.10
2019-02-16T04:14:29.824Z,8.48
2019-02-16T04:16:58.380Z,7.67
2019-02-16T04:19:26.986Z,7.70
2019-02-16T04:21:55.571Z,8.83
2019-02-16T04:24:24.148Z,8.40
2019-02-16T04:26:52.722Z,9.90
2019-02-16T04:29:21.309Z,7.90
2019-02-16T04:31:49.900Z,7.35
2019-02-16T04:34:18.475Z,7.15
2019-02-16T04:36:48.015Z,8.35
2019-02-16T04:39:16.556Z,7.37
2019-02-16T04:41:45.154Z,7.45
2019-02-16T04:44:14.056Z,6.58
2019-02-16T04:46:42.968Z,6.53
2019-02-16T04:49:11.778Z,7.33
2019-02-16T04:51:40.653Z,6.80
2019-02-16T04:54:09.501Z,6.78
2019-02-16T04:56:38.087Z,6.17
2019-02-16T04:59:07.383Z,6.33
2019-02-16T05:01:35.980Z,6.70
2019-02-16T05:04:04.542Z,6.05
2019-02-16T05:06:33.139Z,6.28
2019-02-16T05:09:01.964Z,6.58
2019-02-16T05:11:30.774Z,6.15
2019-02-16T05:13:59.398Z,7.00
2019-02-16T05:16:27.982Z,6.80
2019-02-16T05:18:56.571Z,6.85
2019-02-16T05:21:25.198Z,7.03
2019-02-16T05:23:53.731Z,6.97
2019-02-16T05:26:22.331Z,7.55
2019-02-16T05:28:50.903Z,7.72
2019-02-16T05:31:19.503Z,6.97
2019-02-16T05:33:48.107Z,7.20
2019-02-16T05:36:16.655Z,7.20
2019-02-16T05:38:45.235Z,7.10
2019-02-16T05:41:13.822Z,6.78
2019-02-16T05:43:42.455Z,7.42
2019-02-16T05:46:10.994Z,7.83
2019-02-16T05:48:39.566Z,7.85
2019-02-16T05:51:08.167Z,7.35
2019-02-16T05:53:36.739Z,7.28
2019-02-16T05:56:05.331Z,6.50
2019-02-16T05:58:33.903Z,6.85
2019-02-16T06:01:02.490Z,6.92
2019-02-16T06:03:31.084Z,7.30
2019-02-16T06:05:59.662Z,7.05
2019-02-16T06:08:28.525Z,6.92
2019-02-16T06:10:57.523Z,7.62
2019-02-16T06:13:26.144Z,8.08
2019-02-16T06:15:54.711Z,7.70
2019-02-16T06:18:23.690Z,7.62
2019-02-16T06:20:52.302Z,6.92
2019-02-16T06:23:21.275Z,6.87
2019-02-16T06:25:49.864Z,7.15
2019-02-16T06:28:18.462Z,7.85
2019-02-16T06:30:47.127Z,8.03
2019-02-16T06:33:15.871Z,8.08
2019-02-16T06:35:53.714Z,7.85
2019-02-16T06:38:22.379Z,7.05
2019-02-16T06:40:50.993Z,7.37
2019-02-16T06:43:19.590Z,8.28
2019-02-16T06:45:48.173Z,8.40
2019-02-16T06:48:17.193Z,10.13
2019-02-16T06:50:45.743Z,7.92
2019-02-16T06:53:14.717Z,7.97
2019-02-16T06:55:51.463Z,7.78
2019-02-16T06:58:19.995Z,7.70
2019-02-16T07:00:48.570Z,8.50
2019-02-16T07:03:17.566Z,7.20
2019-02-16T07:05:46.217Z,8.20
2019-02-16T07:08:14.975Z,7.58
2019-02-16T07:10:43.823Z,7.75
2019-02-16T07:13:12.437Z,8.18
2019-02-16T07:15:41.003Z,7.87
2019-02-16T07:18:26.722Z,8.15
2019-02-16T07:20:55.284Z,7.37
2019-02-16T07:23:23.881Z,7.85
2019-02-16T07:25:52.431Z,8.70
2019-02-16T07:28:21.460Z,8.05
2019-02-16T07:30:50.130Z,7.47
2019-02-16T07:33:18.699Z,8.80
2019-02-16T07:35:47.644Z,7.67
2019-02-16T07:38:16.170Z,8.10
2019-02-16T07:40:44.771Z,7.30
2019-02-16T07:43:39.597Z,7.80
2019-02-16T07:46:14.390Z,7.97
2019-02-16T07:48:52.811Z,7.40
2019-02-16T07:51:49.122Z,8.00
2019-02-16T07:54:29.910Z,7.55
2019-02-16T07:57:03.190Z,8.03
2019-02-16T07:59:54.406Z,7.55
2019-02-16T08:02:35.686Z,8.93
2019-02-16T08:05:10.626Z,8.85
2019-02-16T08:08:17.579Z,9.05
2019-02-16T08:17:10.584Z,11.48
2019-02-16T08:20:17.527Z,13.08
2019-02-16T08:23:17.623Z,12.28
2019-02-16T08:26:10.907Z,11.50
2019-02-16T08:29:10.776Z,11.40
2019-02-16T08:32:05.347Z,10.32
2019-02-16T08:35:08.418Z,10.98
2019-02-16T08:38:07.221Z,12.70
2019-02-16T08:41:07.184Z,13.88
2019-02-16T08:43:57.209Z,14.20
2019-02-16T08:46:58.456Z,13.00
2019-02-16T08:49:46.367Z,16.10
2019-02-16T08:52:39.693Z,16.12
2019-02-16T08:58:46.646Z,16.95
2019-02-16T09:01:42.987Z,17.77
2019-02-16T09:04:44.407Z,16.95
2019-02-16T09:07:30.679Z,16.70
2019-02-16T09:10:22.885Z,18.25
2019-02-16T09:13:25.847Z,17.35
2019-02-16T09:21:35.704Z,17.12
2019-02-16T09:24:16.767Z,16.00
2019-02-16T09:26:59.320Z,16.93
2019-02-16T09:32:25.643Z,15.83
2019-02-16T09:37:55.864Z,16.48
2019-02-16T10:11:28.559Z,15.03
2019-02-16T10:20:14.685Z,15.35
2019-02-16T10:23:14.287Z,14.83
2019-02-16T10:26:13.847Z,15.15
2019-02-16T10:29:13.283Z,15.93
2019-02-16T10:32:12.788Z,14.87
2019-02-16T10:35:12.290Z,14.60
2019-02-16T10:38:12.555Z,15.43
2019-02-16T10:41:12.083Z,16.10
2019-02-16T10:44:12.264Z,15.03
2019-02-16T10:47:15.100Z,16.07
2019-02-16T10:50:09.042Z,15.30
2019-02-16T10:53:08.722Z,15.50
2019-02-16T10:56:08.375Z,16.40
2019-02-16T10:59:02.666Z,16.07
2019-02-16T11:01:54.013Z,16.32
2019-02-16T11:04:40.587Z,15.95
2019-02-16T11:07:40.715Z,16.23
2019-02-16T11:10:40.691Z,15.85
2019-02-16T11:13:40.955Z,16.15
2019-02-16T11:16:35.646Z,16.12
2019-02-16T11:19:35.060Z,16.07
2019-02-16T11:22:34.800Z,17.00
2019-02-16T11:25:24.243Z,16.40
2019-02-16T11:28:24.124Z,16.42
2019-02-16T11:31:23.548Z,16.48
2019-02-16T11:34:30.479Z,16.60
2019-02-16T11:37:37.435Z,17.17
2019-02-16T11:40:38.872Z,17.70
2019-02-16T11:43:30.806Z,16.12
2019-02-16T11:46:31.868Z,17.80
2019-02-16T11:52:32.315Z,17.05
2019-02-16T11:58:40.827Z,17.45
2019-02-16T12:01:43.727Z,17.20
2019-02-16T12:04:49.364Z,16.57
2019-02-16T12:07:37.814Z,17.50
2019-02-16T12:10:40.662Z,16.80
2019-02-16T12:13:33.907Z,17.52
2019-02-16T12:16:34.400Z,17.45
2019-02-16T12:19:34.411Z,16.85
2019-02-16T12:22:36.651Z,17.27
2019-02-16T12:25:34.384Z,17.10
2019-02-16T12:28:26.835Z,18.60
2019-02-16T12:31:27.037Z,18.07
2019-02-16T12:34:15.008Z,17.48
2019-02-16T12:37:07.951Z,17.15
2019-02-16T12:39:57.075Z,18.10
2019-02-16T12:42:58.439Z,17.82
2019-02-16T12:48:54.518Z,16.37
2019-02-16T12:54:54.555Z,18.40
2019-02-16T13:00:20.617Z,17.95
2019-02-16T13:05:52.382Z,18.15
2019-02-16T13:08:54.810Z,18.62
2019-02-16T13:11:55.239Z,18.17
2019-02-16T13:18:03.419Z,17.57
2019-02-16T13:20:45.031Z,19.12
2019-02-16T13:26:37.717Z,18.40
2019-02-16T13:29:18.679Z,18.62
2019-02-16T13:34:47.180Z,17.62
2019-02-16T13:40:40.641Z,19.30
2019-02-16T13:46:16.219Z,18.60
2019-02-16T13:51:43.441Z,17.23
2019-02-16T13:54:49.623Z,19.30
2019-02-16T13:57:38.914Z,19.27
2019-02-16T14:00:27.882Z,19.17
2019-02-16T14:06:27.707Z,18.52
2019-02-16T14:09:18.046Z,19.15
2019-02-16T14:12:13.654Z,17.73
2019-02-16T14:14:49.298Z,18.48
2019-02-16T14:17:41.548Z,17.70
2019-02-16T14:20:10.130Z,19.00
2019-02-16T14:22:38.748Z,18.70
2019-02-16T14:25:09.711Z,19.15
2019-02-16T14:27:38.246Z,19.05
2019-02-16T14:30:08.855Z,18.67
2019-02-16T14:32:37.605Z,18.40
2019-02-16T14:35:06.610Z,20.10
2019-02-16T14:37:41.541Z,18.05
2019-02-16T14:40:10.194Z,19.00
2019-02-16T14:42:38.754Z,20.20
2019-02-16T14:45:08.950Z,19.50
2019-02-16T14:47:37.558Z,19.27
2019-02-16T14:50:06.407Z,19.23
2019-02-16T14:52:37.831Z,18.87
2019-02-16T14:55:08.407Z,19.62
2019-02-16T14:57:37.007Z,20.68
2019-02-16T15:00:05.973Z,20.02
2019-02-16T15:02:34.594Z,19.45
2019-02-16T15:05:03.182Z,19.45
2019-02-16T15:07:32.542Z,21.60
2019-02-16T15:10:01.491Z,23.90
2019-02-16T15:12:30.051Z,21.17
2019-02-16T15:14:59.030Z,21.02
2019-02-16T15:17:27.626Z,21.33
2019-02-16T15:19:56.222Z,21.52
2019-02-16T15:22:25.082Z,21.48
2019-02-16T15:24:54.091Z,20.27
2019-02-16T15:27:23.070Z,20.45
2019-02-16T15:29:52.014Z,20.70
2019-02-16T15:32:20.847Z,20.32
2019-02-16T15:34:49.786Z,19.70
2019-02-16T15:37:18.355Z,20.37
2019-02-16T15:39:46.963Z,19.32
2019-02-16T15:42:15.512Z,19.92
2019-02-16T15:44:44.117Z,19.87
2019-02-16T15:47:12.687Z,20.00
2019-02-16T15:49:41.606Z,20.43
2019-02-16T15:52:10.476Z,19.92
2019-02-16T15:54:39.054Z,20.02
2019-02-16T15:57:08.280Z,19.95
2019-02-16T15:59:36.901Z,19.80
2019-02-16T16:02:05.842Z,20.20
2019-02-16T16:04:34.627Z,19.57
2019-02-16T16:07:04.807Z,19.62
2019-02-16T16:09:47.195Z,19.05
2019-02-16T16:12:28.619Z,19.55
2019-02-16T16:15:03.945Z,19.60
2019-02-16T16:17:58.450Z,18.92
2019-02-16T16:20:34.423Z,19.07
2019-02-16T16:23:31.256Z,18.95
2019-02-16T16:26:19.462Z,18.95
2019-02-16T16:29:00.520Z,21.57
2019-02-16T16:31:44.018Z,20.85
2019-02-16T16:34:34.711Z,19.70
2019-02-16T16:37:12.612Z,18.60
2019-02-16T16:40:00.358Z,18.27
2019-02-16T16:43:04.368Z,18.37
2019-02-16T16:45:55.047Z,17.55
2019-02-16T16:48:44.078Z,17.98
2019-02-16T16:51:29.109Z,17.87
2019-02-16T16:54:22.667Z,17.00
2019-02-16T16:57:16.483Z,19.27
2019-02-16T16:59:58.138Z,22.15
2019-02-16T17:02:48.571Z,20.35
2019-02-16T17:05:39.543Z,19.30
2019-02-16T17:08:16.311Z,20.35
2019-02-16T17:10:59.243Z,19.70
2019-02-16T17:13:52.810Z,19.70
2019-02-16T17:16:40.887Z,19.75
2019-02-16T17:19:34.371Z,19.35
2019-02-16T17:22:25.197Z,19.87
2019-02-16T17:25:12.830Z,19.73
2019-02-16T17:27:59.782Z,18.95
2019-02-16T17:30:49.143Z,18.95
2019-02-16T17:33:36.878Z,19.17
2019-02-16T17:36:23.554Z,19.20
2019-02-16T17:39:01.169Z,19.40
2019-02-16T17:42:01.247Z,18.73
2019-02-16T17:44:45.794Z,20.70
2019-02-16T17:47:32.299Z,20.68
2019-02-16T17:50:09.638Z,20.97
2019-02-16T17:53:06.399Z,20.77
2019-02-16T17:55:50.135Z,23.20
2019-02-16T17:58:40.908Z,22.13
2019-02-16T18:01:25.861Z,20.88
2019-02-16T18:04:31.781Z,18.75
2019-02-16T18:07:22.738Z,20.30
2019-02-16T18:10:16.346Z,18.77
2019-02-16T18:12:58.854Z,18.30
2019-02-16T18:16:01.662Z,18.65
2019-02-16T18:18:35.239Z,17.48
2019-02-16T18:21:21.149Z,17.62
2019-02-16T18:23:58.002Z,18.32
2019-02-16T18:26:34.180Z,19.65
2019-02-16T18:29:12.065Z,19.98
2019-02-16T18:32:08.003Z,19.27
2019-02-16T18:34:58.650Z,19.05
2019-02-16T18:37:49.298Z,18.60
2019-02-16T18:40:43.029Z,18.80
2019-02-16T18:43:30.651Z,18.32
2019-02-16T18:46:05.524Z,17.45
2019-02-16T18:49:01.591Z,18.00
2019-02-16T18:51:45.935Z,19.62
2019-02-16T18:54:30.072Z,20.72
2019-02-16T18:57:14.718Z,20.25
2019-02-16T19:00:08.279Z,18.35
2019-02-16T19:02:59.337Z,19.42
2019-02-16T19:05:37.783Z,19.77
2019-02-16T19:08:22.177Z,20.43
2019-02-16T19:11:19.340Z,18.87
2019-02-16T19:14:10.996Z,19.05
2019-02-16T19:17:01.666Z,22.95
2019-02-16T19:19:37.095Z,18.30
2019-02-16T19:22:25.074Z,17.80
2019-02-16T19:25:03.345Z,17.00
2019-02-16T19:27:52.414Z,17.57
2019-02-16T19:30:32.151Z,18.12
2019-02-16T19:33:07.008Z,18.37
2019-02-16T19:35:50.008Z,16.27
2019-02-16T19:38:40.542Z,16.62
2019-02-16T19:41:27.415Z,17.65
2019-02-16T19:44:04.816Z,18.27
2019-02-16T19:46:56.630Z,17.55
2019-02-16T19:49:50.538Z,17.85
2019-02-16T19:52:44.079Z,17.52
2019-02-16T19:55:35.251Z,17.52
2019-02-16T19:58:21.735Z,18.07
2019-02-16T20:01:09.383Z,17.17
2019-02-16T20:03:50.015Z,18.98
2019-02-16T20:10:03.973Z,17.25
2019-02-16T20:13:11.067Z,20.65
2019-02-16T20:19:12.880Z,16.27
2019-02-16T20:25:08.583Z,16.70
2019-02-16T20:28:15.513Z,15.98
2019-02-16T20:31:18.188Z,15.88
2019-02-16T20:34:25.125Z,17.07
2019-02-16T20:37:32.271Z,15.30
2019-02-16T20:40:35.336Z,16.30
2019-02-16T20:43:24.043Z,16.75
2019-02-16T20:46:19.414Z,17.42
2019-02-16T20:52:16.147Z,23.80
2019-02-16T20:55:15.719Z,21.05
2019-02-16T20:58:07.819Z,22.22
2019-02-16T21:01:07.690Z,21.97
2019-02-16T21:04:01.628Z,21.27
2019-02-16T21:07:01.336Z,22.35
2019-02-16T21:10:00.987Z,21.17
2019-02-16T21:13:01.249Z,23.00
2019-02-16T21:16:00.955Z,21.30
2019-02-16T21:19:00.338Z,22.00
2019-02-16T21:22:03.498Z,21.75
2019-02-16T21:24:43.848Z,21.00
2019-02-16T21:30:14.257Z,18.62
2019-02-16T21:33:02.350Z,18.50
2019-02-16T21:38:39.137Z,17.98
2019-02-16T21:41:22.737Z,18.00
2019-02-16T21:46:52.440Z,17.90
2019-02-16T21:49:36.303Z,16.73
2019-02-16T21:55:01.738Z,16.27
2019-02-16T22:19:58.063Z,17.50
2019-02-16T22:22:38.736Z,17.05
2019-02-16T22:25:21.315Z,17.40
2019-02-16T22:33:36.928Z,19.45
2019-02-16T22:36:17.267Z,20.32
2019-02-16T22:38:58.003Z,17.05
2019-02-16T22:41:38.527Z,19.60
2019-02-16T22:44:19.252Z,18.70
2019-02-16T22:46:59.823Z,19.02
2019-02-16T22:49:40.539Z,19.52
2019-02-16T22:52:21.291Z,19.00
2019-02-16T22:55:02.499Z,17.35
2019-02-16T22:57:43.282Z,19.25
2019-02-16T23:00:43.411Z,18.42
2019-02-16T23:03:24.560Z,20.40
2019-02-16T23:06:05.394Z,20.40
2019-02-16T23:08:46.355Z,20.45
2019-02-16T23:11:27.260Z,19.30
2019-02-16T23:14:07.668Z,18.48
2019-02-16T23:16:48.756Z,18.27
2019-02-16T23:19:29.360Z,17.37
2019-02-16T23:22:09.640Z,17.67
2019-02-16T23:24:50.379Z,17.17
2019-02-16T23:27:30.962Z,18.52
2019-02-16T23:30:11.969Z,16.82
2019-02-16T23:32:52.627Z,16.95
2019-02-16T23:35:33.284Z,18.15
2019-02-16T23:38:13.782Z,18.48
2019-02-16T23:40:54.289Z,16.82
2019-02-16T23:43:35.039Z,17.00
2019-02-16T23:46:15.898Z,17.77
2019-02-16T23:48:56.168Z,17.27
2019-02-16T23:51:36.797Z,17.37
2019-02-16T23:54:17.894Z,18.45
2019-02-16T23:56:58.462Z,18.37
2019-02-16T23:59:39.219Z,18.25
